createdAt,value
2023-03-14T00:01:32.064Z,1.00
2023-03-14T00:03:48.049Z,1.50
2023-03-14T00:06:06.436Z,1.60
2023-03-14T00:08:23.698Z,1.30
2023-03-14T00:10:38.498Z,1.70
2023-03-14T00:12:55.683Z,1.10
2023-03-14T00:15:12.274Z,1.00
2023-03-14T00:17:28.600Z,1.00
2023-03-14T00:19:43.763Z,1.10
2023-03-14T00:22:00.238Z,1.50
2023-03-14T00:24:16.731Z,1.00
2023-03-14T00:26:30.977Z,1.10
2023-03-14T00:28:47.222Z,1.20
2023-03-14T00:31:07.126Z,1.10
2023-03-14T00:33:23.953Z,1.00
2023-03-14T00:35:39.470Z,1.30
2023-03-14T00:37:57.779Z,1.30
2023-03-14T00:40:18.343Z,1.30
2023-03-14T00:42:36.034Z,1.20
2023-03-14T00:44:56.109Z,1.00
2023-03-14T00:50:17.813Z,1.30
2023-03-14T00:52:31.753Z,2.00
2023-03-14T00:54:44.930Z,1.40
2023-03-14T00:56:59.453Z,1.40
2023-03-14T00:59:12.104Z,1.10
2023-03-14T01:01:25.510Z,1.20
2023-03-14T01:03:38.460Z,1.00
2023-03-14T01:05:51.174Z,0.90
2023-03-14T01:08:04.221Z,1.00
2023-03-14T01:10:18.149Z,0.80
2023-03-14T01:12:31.438Z,0.80
2023-03-14T01:14:43.908Z,0.80
2023-03-14T01:16:56.955Z,0.90
2023-03-14T01:19:10.381Z,0.90
2023-03-14T01:21:24.919Z,0.70
2023-03-14T01:23:38.283Z,0.90
2023-03-14T01:25:51.140Z,0.90
2023-03-14T01:28:05.009Z,1.00
2023-03-14T01:30:18.945Z,0.90
2023-03-14T01:32:31.510Z,1.00
2023-03-14T01:34:44.110Z,0.70
2023-03-14T01:36:56.884Z,0.70
2023-03-14T01:39:10.961Z,0.90
2023-03-14T01:41:25.475Z,1.30
2023-03-14T01:43:40.988Z,0.90
2023-03-14T01:46:27.666Z,0.80
2023-03-14T01:48:46.945Z,0.80
2023-03-14T01:51:00.223Z,0.90
2023-03-14T01:53:13.035Z,0.70
2023-03-14T01:55:30.312Z,0.90
2023-03-14T01:57:46.100Z,1.30
2023-03-14T02:00:02.451Z,1.10
2023-03-14T02:02:28.645Z,1.70
2023-03-14T02:04:42.833Z,1.20
2023-03-14T02:07:04.692Z,1.20
2023-03-14T02:09:21.438Z,1.10
2023-03-14T02:11:36.903Z,0.90
2023-03-14T02:13:57.146Z,1.10
2023-03-14T02:16:42.269Z,1.00
2023-03-14T02:19:44.161Z,0.90
2023-03-14T02:22:29.924Z,0.80
2023-03-14T02:28:40.249Z,0.70
2023-03-14T02:31:03.439Z,0.80
2023-03-14T02:33:21.097Z,0.90
2023-03-14T02:35:36.987Z,0.90
2023-03-14T02:37:56.110Z,0.90
2023-03-14T02:40:11.508Z,0.80
2023-03-14T02:42:25.268Z,1.00
2023-03-14T02:44:39.518Z,0.80
2023-03-14T02:46:52.189Z,0.80
2023-03-14T02:49:07.978Z,1.10
2023-03-14T02:51:21.112Z,0.90
2023-03-14T02:53:36.589Z,0.70
2023-03-14T02:55:55.515Z,1.00
2023-03-14T02:58:08.865Z,0.90
2023-03-14T03:00:23.508Z,0.90
2023-03-14T03:02:37.907Z,1.00
2023-03-14T03:04:50.849Z,0.90
2023-03-14T03:07:03.608Z,1.20
2023-03-14T03:09:18.345Z,1.00
2023-03-14T03:11:31.600Z,0.90
2023-03-14T03:13:44.934Z,0.90
2023-03-14T03:15:58.408Z,0.90
2023-03-14T03:18:12.823Z,0.80
2023-03-14T03:20:25.709Z,0.80
2023-03-14T03:22:38.617Z,1.10
2023-03-14T03:24:51.624Z,1.00
2023-03-14T03:27:04.568Z,0.90
2023-03-14T03:29:19.216Z,1.10
2023-03-14T03:31:32.406Z,1.10
2023-03-14T03:33:45.620Z,1.20
2023-03-14T03:35:58.814Z,1.00
2023-03-14T03:38:16.336Z,0.90
2023-03-14T03:40:29.882Z,1.00
2023-03-14T03:42:42.570Z,1.00
2023-03-14T03:44:55.834Z,1.00
2023-03-14T03:47:09.226Z,1.30
2023-03-14T03:49:21.747Z,1.10
2023-03-14T03:51:34.948Z,1.10
2023-03-14T03:53:48.467Z,1.30
2023-03-14T03:56:05.187Z,0.80
2023-03-14T03:58:19.347Z,1.30
2023-03-14T04:00:33.496Z,0.90
2023-03-14T04:02:46.797Z,1.10
2023-03-14T04:05:01.813Z,1.20
2023-03-14T04:07:19.698Z,0.80
2023-03-14T04:09:35.639Z,1.00
2023-03-14T04:11:56.739Z,1.50
2023-03-14T04:14:19.046Z,1.40
2023-03-14T04:16:33.703Z,1.30
2023-03-14T04:18:58.099Z,1.10
2023-03-14T04:21:14.084Z,1.40
2023-03-14T04:23:40.028Z,1.30
2023-03-14T04:25:52.912Z,1.40
2023-03-14T04:28:07.976Z,1.10
2023-03-14T04:30:20.703Z,1.80
2023-03-14T04:32:39.612Z,1.30
2023-03-14T04:34:52.454Z,0.90
2023-03-14T04:37:05.200Z,1.20
2023-03-14T04:39:22.420Z,1.40
2023-03-14T04:41:44.006Z,1.80
2023-03-14T04:43:57.920Z,1.60
2023-03-14T04:46:12.408Z,1.40
2023-03-14T04:48:25.675Z,1.30
2023-03-14T04:50:38.464Z,1.30
2023-03-14T04:52:51.403Z,1.40
2023-03-14T04:55:04.492Z,1.40
2023-03-14T04:57:17.722Z,1.30
2023-03-14T04:59:31.454Z,1.40
2023-03-14T05:01:51.876Z,1.30
2023-03-14T05:04:23.692Z,1.40
2023-03-14T05:06:48.084Z,1.30
2023-03-14T05:09:19.366Z,1.70
2023-03-14T05:12:00.388Z,1.70
2023-03-14T05:14:21.881Z,1.90
2023-03-14T05:16:50.590Z,1.40
2023-03-14T05:19:26.167Z,1.60
2023-03-14T05:21:58.400Z,1.40
2023-03-14T05:24:37.421Z,1.90
2023-03-14T05:27:10.531Z,1.90
2023-03-14T05:29:47.541Z,1.40
2023-03-14T05:32:23.508Z,1.40
2023-03-14T05:34:54.456Z,1.40
2023-03-14T05:37:27.063Z,1.30
2023-03-14T05:39:58.327Z,1.50
2023-03-14T05:42:46.294Z,1.10
2023-03-14T05:45:17.035Z,1.60
2023-03-14T05:47:36.435Z,1.00
2023-03-14T05:50:24.815Z,1.30
2023-03-14T05:52:50.325Z,1.10
2023-03-14T05:55:23.720Z,1.20
2023-03-14T05:58:11.569Z,1.40
2023-03-14T06:00:44.264Z,1.10
2023-03-14T06:03:04.329Z,1.10
2023-03-14T06:05:18.898Z,1.10
2023-03-14T06:07:32.163Z,1.00
2023-03-14T06:09:45.242Z,1.60
2023-03-14T06:12:04.847Z,1.60
2023-03-14T06:14:21.745Z,1.10
2023-03-14T06:16:35.718Z,0.90
2023-03-14T06:18:53.275Z,1.20
2023-03-14T06:21:08.360Z,1.20
2023-03-14T06:23:22.079Z,1.20
2023-03-14T06:25:36.351Z,1.00
2023-03-14T06:27:49.810Z,1.10
2023-03-14T06:30:03.613Z,0.90
2023-03-14T06:32:17.306Z,1.10
2023-03-14T06:34:31.478Z,1.20
2023-03-14T06:36:44.464Z,1.20
2023-03-14T06:38:57.721Z,1.20
2023-03-14T06:41:13.097Z,1.00
2023-03-14T06:43:28.993Z,1.40
2023-03-14T06:45:42.427Z,1.10
2023-03-14T06:47:55.762Z,1.30
2023-03-14T06:50:16.168Z,1.30
2023-03-14T06:52:29.532Z,1.10
2023-03-14T06:54:42.374Z,1.50
2023-03-14T06:56:55.252Z,1.20
2023-03-14T06:59:07.902Z,0.90
2023-03-14T07:01:29.535Z,1.30
2023-03-14T07:03:49.089Z,1.60
2023-03-14T07:06:02.416Z,1.10
2023-03-14T07:08:15.607Z,1.30
2023-03-14T07:10:28.566Z,1.10
2023-03-14T07:12:41.861Z,1.30
2023-03-14T07:14:54.749Z,1.20
2023-03-14T07:17:08.219Z,1.10
2023-03-14T07:19:21.782Z,1.30
2023-03-14T07:21:36.582Z,1.00
2023-03-14T07:23:52.684Z,1.40
2023-03-14T07:26:05.985Z,1.10
2023-03-14T07:28:19.178Z,0.90
2023-03-14T07:30:33.308Z,1.20
2023-03-14T07:32:46.918Z,1.00
2023-03-14T07:35:00.460Z,1.10
2023-03-14T07:37:13.967Z,1.20
2023-03-14T07:39:26.921Z,1.30
2023-03-14T07:41:50.334Z,1.20
2023-03-14T07:44:17.400Z,0.80
2023-03-14T07:46:30.608Z,1.20
2023-03-14T07:48:43.734Z,1.00
2023-03-14T07:50:58.780Z,1.30
2023-03-14T07:53:12.633Z,1.30
2023-03-14T07:55:25.901Z,1.10
2023-03-14T07:57:39.032Z,0.70
2023-03-14T07:59:52.560Z,1.10
2023-03-14T08:02:07.914Z,1.10
2023-03-14T08:04:20.807Z,1.10
2023-03-14T08:06:33.415Z,1.00
2023-03-14T08:08:46.862Z,1.10
2023-03-14T08:10:59.976Z,1.50
2023-03-14T08:13:13.308Z,1.20
2023-03-14T08:15:26.670Z,1.30
2023-03-14T08:17:39.365Z,1.30
2023-03-14T08:19:52.081Z,1.50
2023-03-14T08:22:04.654Z,1.20
2023-03-14T08:24:17.240Z,1.20
2023-03-14T08:26:30.241Z,1.10
2023-03-14T08:28:43.030Z,1.50
2023-03-14T08:30:59.055Z,1.10
2023-03-14T08:33:12.731Z,1.40
2023-03-14T08:35:26.107Z,1.30
2023-03-14T08:37:40.076Z,1.40
2023-03-14T08:39:54.071Z,1.30
2023-03-14T08:42:07.255Z,1.60
2023-03-14T08:44:20.895Z,1.10
2023-03-14T08:46:37.083Z,0.90
2023-03-14T08:48:50.655Z,1.00
2023-03-14T08:51:08.131Z,1.40
2023-03-14T08:53:23.069Z,1.10
2023-03-14T08:55:36.147Z,1.50
2023-03-14T08:57:49.868Z,1.30
2023-03-14T09:00:02.674Z,1.20
2023-03-14T09:02:15.841Z,1.20
2023-03-14T09:04:28.740Z,1.90
2023-03-14T09:06:41.678Z,1.20
2023-03-14T09:08:54.296Z,1.40
2023-03-14T09:11:07.494Z,1.10
2023-03-14T09:13:20.002Z,1.20
2023-03-14T09:15:32.893Z,1.50
2023-03-14T09:17:46.516Z,1.30
2023-03-14T09:20:00.619Z,1.40
2023-03-14T09:22:14.442Z,1.10
2023-03-14T09:24:26.976Z,1.30
2023-03-14T09:26:40.052Z,1.20
2023-03-14T09:28:52.976Z,1.40
2023-03-14T09:31:12.923Z,1.10
2023-03-14T09:33:25.834Z,1.50
2023-03-14T09:35:40.582Z,1.30
2023-03-14T09:37:53.897Z,1.10
2023-03-14T09:40:12.509Z,1.30
2023-03-14T09:42:30.836Z,1.10
2023-03-14T09:44:49.080Z,1.30
2023-03-14T09:47:05.381Z,1.30
2023-03-14T09:49:23.867Z,1.10
2023-03-14T09:51:37.044Z,1.00
2023-03-14T09:53:51.037Z,1.20
2023-03-14T09:56:04.914Z,1.60
2023-03-14T09:58:21.106Z,1.30
2023-03-14T10:00:35.891Z,1.10
2023-03-14T10:02:54.416Z,1.10
2023-03-14T10:05:12.084Z,1.20
2023-03-14T10:07:29.893Z,0.90
2023-03-14T10:09:43.380Z,1.00
2023-03-14T10:11:57.936Z,1.00
2023-03-14T10:14:14.703Z,1.10
2023-03-14T10:16:36.314Z,1.00
2023-03-14T10:18:50.962Z,1.00
2023-03-14T10:21:20.873Z,1.10
2023-03-14T10:23:36.102Z,1.20
2023-03-14T10:25:50.528Z,1.00
2023-03-14T10:28:03.994Z,1.20
2023-03-14T10:30:40.265Z,1.70
2023-03-14T10:32:53.192Z,1.30
2023-03-14T10:35:26.286Z,1.40
2023-03-14T10:37:39.410Z,1.30
2023-03-14T10:39:55.714Z,1.50
2023-03-14T10:42:17.649Z,1.30
2023-03-14T10:44:33.064Z,1.20
2023-03-14T10:46:46.266Z,1.60
2023-03-14T10:49:27.026Z,1.70
2023-03-14T10:51:39.829Z,1.40
2023-03-14T10:53:54.471Z,1.40
2023-03-14T10:56:09.726Z,1.50
2023-03-14T10:58:33.071Z,1.60
2023-03-14T11:00:46.704Z,1.20
2023-03-14T11:03:13.060Z,1.20
2023-03-14T11:05:35.013Z,1.50
2023-03-14T11:07:49.261Z,1.10
2023-03-14T11:10:12.113Z,1.20
2023-03-14T11:12:43.251Z,1.10
2023-03-14T11:15:04.349Z,1.20
2023-03-14T11:17:25.031Z,1.40
2023-03-14T11:20:02.753Z,1.10
2023-03-14T11:22:25.035Z,1.10
2023-03-14T11:24:52.828Z,0.90
2023-03-14T11:27:11.176Z,1.00
2023-03-14T11:29:30.641Z,1.10
2023-03-14T11:31:48.588Z,1.30
2023-03-14T11:34:05.698Z,1.50
2023-03-14T11:36:23.888Z,1.60
2023-03-14T11:38:43.268Z,1.00
2023-03-14T11:40:58.386Z,1.00
2023-03-14T11:43:19.741Z,1.70
2023-03-14T11:45:38.545Z,1.50
2023-03-14T11:47:56.274Z,1.60
2023-03-14T11:50:17.280Z,1.10
2023-03-14T11:52:35.051Z,1.20
2023-03-14T11:54:52.980Z,1.10
2023-03-14T11:57:09.449Z,1.20
2023-03-14T11:59:26.447Z,1.10
2023-03-14T12:01:56.065Z,1.50
2023-03-14T12:04:17.457Z,1.40
2023-03-14T12:06:36.409Z,1.40
2023-03-14T12:08:54.766Z,1.30
2023-03-14T12:11:13.506Z,1.30
2023-03-14T12:13:26.197Z,1.20
2023-03-14T12:15:45.704Z,1.30
2023-03-14T12:18:02.149Z,1.00
2023-03-14T12:20:23.937Z,1.60
2023-03-14T12:22:38.170Z,1.70
2023-03-14T12:24:57.786Z,1.30
2023-03-14T12:27:17.277Z,2.10
2023-03-14T12:29:32.026Z,1.20
2023-03-14T12:31:47.995Z,1.50
2023-03-14T12:34:08.250Z,1.50
2023-03-14T12:36:38.468Z,1.70
2023-03-14T12:39:05.732Z,1.30
2023-03-14T12:41:24.846Z,1.40
2023-03-14T12:43:39.374Z,1.30
2023-03-14T12:46:24.086Z,1.30
2023-03-14T12:48:37.016Z,1.50
2023-03-14T12:50:57.862Z,1.40
2023-03-14T12:53:42.516Z,1.30
2023-03-14T12:55:59.430Z,0.90
2023-03-14T12:58:21.333Z,1.60
2023-03-14T13:00:38.032Z,1.20
2023-03-14T13:02:52.424Z,1.10
2023-03-14T13:05:19.007Z,1.20
2023-03-14T13:08:01.671Z,1.40
2023-03-14T13:10:28.083Z,1.30
2023-03-14T13:12:47.608Z,1.30
2023-03-14T13:15:01.933Z,2.10
2023-03-14T13:17:34.020Z,1.50
2023-03-14T13:22:00.952Z,1.80
2023-03-14T13:24:26.767Z,2.50
2023-03-14T13:26:46.463Z,1.70
2023-03-14T13:29:00.481Z,2.30
2023-03-14T13:31:32.215Z,1.90
2023-03-14T13:33:47.488Z,1.50
2023-03-14T13:36:04.752Z,1.70
2023-03-14T13:38:25.122Z,1.80
2023-03-14T13:40:39.980Z,1.90
2023-03-14T13:42:53.048Z,1.70
2023-03-14T13:45:07.811Z,1.60
2023-03-14T13:47:23.199Z,1.80
2023-03-14T13:49:37.671Z,2.20
2023-03-14T13:51:50.991Z,1.70
2023-03-14T13:54:05.278Z,1.70
2023-03-14T13:56:18.894Z,2.00
2023-03-14T13:58:36.311Z,1.70
2023-03-14T14:00:57.849Z,1.80
2023-03-14T14:03:17.310Z,1.60
2023-03-14T14:05:31.351Z,1.50
2023-03-14T14:07:45.060Z,1.60
2023-03-14T14:09:59.408Z,1.30
2023-03-14T14:12:17.386Z,1.50
2023-03-14T14:14:35.535Z,1.30
2023-03-14T14:16:49.211Z,1.20
2023-03-14T14:19:04.740Z,1.30
2023-03-14T14:21:19.254Z,1.20
2023-03-14T14:23:34.011Z,1.60
2023-03-14T14:25:47.450Z,1.70
2023-03-14T14:28:00.130Z,1.30
2023-03-14T14:30:29.186Z,1.20
2023-03-14T14:32:45.516Z,1.70
2023-03-14T14:35:07.460Z,1.40
2023-03-14T14:37:28.229Z,1.90
2023-03-14T14:39:43.751Z,1.50
2023-03-14T14:41:57.392Z,1.70
2023-03-14T14:44:10.993Z,1.60
2023-03-14T14:46:26.964Z,1.60
2023-03-14T14:48:43.486Z,1.30
2023-03-14T14:51:07.875Z,2.20
2023-03-14T14:53:32.542Z,1.20
2023-03-14T14:55:47.836Z,1.60
2023-03-14T14:58:01.398Z,1.20
2023-03-14T15:00:23.093Z,1.30
2023-03-14T15:02:42.044Z,2.00
2023-03-14T15:04:55.742Z,1.60
2023-03-14T15:07:08.913Z,1.70
2023-03-14T15:09:22.054Z,1.30
2023-03-14T15:11:35.098Z,1.50
2023-03-14T15:13:47.871Z,1.60
2023-03-14T15:16:01.249Z,1.40
2023-03-14T15:18:20.103Z,1.60
2023-03-14T15:20:35.171Z,1.60
2023-03-14T15:22:49.700Z,1.60
2023-03-14T15:25:02.352Z,1.70
2023-03-14T15:27:19.898Z,1.70
2023-03-14T15:29:32.558Z,1.80
2023-03-14T15:31:46.609Z,1.30
2023-03-14T15:33:59.417Z,1.60
2023-03-14T15:36:17.862Z,1.70
2023-03-14T15:38:30.457Z,1.60
2023-03-14T15:40:43.753Z,1.50
2023-03-14T15:42:56.445Z,1.60
2023-03-14T15:45:11.208Z,1.40
2023-03-14T15:47:24.064Z,1.50
2023-03-14T15:49:37.373Z,1.30
2023-03-14T15:51:50.918Z,1.20
2023-03-14T15:54:04.533Z,1.60
2023-03-14T15:56:19.376Z,1.40
2023-03-14T15:58:35.943Z,1.40
2023-03-14T16:00:48.963Z,1.30
2023-03-14T16:03:01.929Z,1.20
2023-03-14T16:05:16.385Z,1.50
2023-03-14T16:07:28.940Z,1.60
2023-03-14T16:09:42.007Z,1.30
2023-03-14T16:11:56.284Z,1.30
2023-03-14T16:14:09.070Z,1.30
2023-03-14T16:16:22.210Z,1.50
2023-03-14T16:18:38.152Z,1.30
2023-03-14T16:20:58.498Z,1.40
2023-03-14T16:23:11.002Z,1.50
2023-03-14T16:25:24.423Z,1.70
2023-03-14T16:27:37.111Z,1.60
2023-03-14T16:29:51.041Z,1.70
2023-03-14T16:32:03.672Z,1.30
2023-03-14T16:34:16.879Z,1.70
2023-03-14T16:36:29.807Z,1.20
2023-03-14T16:38:43.450Z,1.50
2023-03-14T16:41:05.040Z,0.70
2023-03-14T16:43:17.597Z,0.90
2023-03-14T16:45:30.477Z,1.10
2023-03-14T16:47:43.419Z,0.90
2023-03-14T16:49:56.880Z,1.30
2023-03-14T16:52:10.686Z,0.90
2023-03-14T16:54:23.324Z,1.00
2023-03-14T16:56:36.834Z,1.00
2023-03-14T16:58:49.337Z,0.90
2023-03-14T17:01:11.442Z,0.90
2023-03-14T17:03:24.404Z,0.90
2023-03-14T17:05:37.123Z,0.80
2023-03-14T17:07:49.697Z,1.00
2023-03-14T17:10:03.000Z,0.90
2023-03-14T17:12:16.361Z,0.80
2023-03-14T17:14:28.820Z,1.10
2023-03-14T17:16:41.407Z,1.10
2023-03-14T17:18:54.194Z,0.90
2023-03-14T17:21:07.670Z,1.30
2023-03-14T17:23:20.589Z,0.90
2023-03-14T17:25:33.221Z,0.90
2023-03-14T17:27:46.357Z,1.10
2023-03-14T17:29:59.449Z,1.20
2023-03-14T17:32:12.472Z,1.10
2023-03-14T17:34:25.265Z,1.40
2023-03-14T17:36:37.901Z,1.20
2023-03-14T17:38:50.673Z,1.50
2023-03-14T17:41:03.192Z,1.60
2023-03-14T17:43:15.722Z,1.10
2023-03-14T17:45:28.368Z,1.40
2023-03-14T17:47:40.769Z,1.00
2023-03-14T17:49:53.690Z,1.10
2023-03-14T17:52:06.280Z,1.30
2023-03-14T17:54:19.015Z,1.30
2023-03-14T17:56:31.704Z,1.40
2023-03-14T17:58:45.060Z,1.20
2023-03-14T18:00:58.376Z,1.40
2023-03-14T18:03:11.299Z,1.10
2023-03-14T18:05:24.178Z,1.30
2023-03-14T18:07:39.211Z,1.20
2023-03-14T18:09:52.596Z,1.60
2023-03-14T18:12:08.469Z,1.20
2023-03-14T18:14:21.350Z,1.20
2023-03-14T18:16:34.490Z,1.70
2023-03-14T18:18:48.736Z,1.50
2023-03-14T18:21:01.381Z,1.80
2023-03-14T18:23:14.320Z,1.50
2023-03-14T18:25:26.879Z,1.50
2023-03-14T18:27:39.654Z,1.80
2023-03-14T18:29:52.795Z,1.70
2023-03-14T18:32:05.498Z,1.60
2023-03-14T18:34:17.987Z,1.40
2023-03-14T18:36:33.908Z,1.00
2023-03-14T18:38:48.926Z,1.30
2023-03-14T18:41:06.200Z,1.00
2023-03-14T18:43:18.810Z,1.10
2023-03-14T18:45:31.708Z,1.10
2023-03-14T18:47:44.680Z,1.10
2023-03-14T18:49:57.327Z,0.90
2023-03-14T18:52:10.414Z,1.20
2023-03-14T18:54:23.764Z,1.60
2023-03-14T18:56:36.341Z,0.90
2023-03-14T18:58:49.356Z,0.90
2023-03-14T19:01:06.060Z,0.90
2023-03-14T19:03:18.976Z,0.70
2023-03-14T19:05:31.790Z,0.70
2023-03-14T19:07:44.396Z,0.80
2023-03-14T19:09:56.932Z,0.90
2023-03-14T19:12:10.215Z,0.70
2023-03-14T19:14:24.197Z,0.60
2023-03-14T19:16:37.052Z,0.60
2023-03-14T19:18:49.791Z,0.80
2023-03-14T19:21:06.881Z,0.70
2023-03-14T19:23:19.457Z,0.60
2023-03-14T19:25:32.329Z,0.70
2023-03-14T19:27:45.007Z,0.50
2023-03-14T19:29:58.651Z,0.60
2023-03-14T19:32:12.667Z,0.60
2023-03-14T19:34:26.091Z,0.60
2023-03-14T19:36:40.923Z,0.40
2023-03-14T19:38:53.760Z,0.60
2023-03-14T19:41:06.938Z,0.40
2023-03-14T19:43:20.108Z,0.90
2023-03-14T19:45:36.219Z,0.60
2023-03-14T19:47:49.543Z,0.60
2023-03-14T19:50:02.877Z,0.50
2023-03-14T19:52:15.590Z,0.50
2023-03-14T19:54:28.656Z,0.50
2023-03-14T19:56:42.378Z,0.50
2023-03-14T19:58:55.341Z,0.30
2023-03-14T20:01:08.980Z,0.40
2023-03-14T20:03:24.961Z,0.60
2023-03-14T20:05:37.663Z,0.60
2023-03-14T20:07:50.926Z,0.40
2023-03-14T20:10:03.445Z,0.60
2023-03-14T20:12:16.085Z,0.40
2023-03-14T20:14:30.594Z,0.40
2023-03-14T20:16:43.800Z,0.50
2023-03-14T20:18:58.002Z,0.40
2023-03-14T20:21:14.881Z,0.40
2023-03-14T20:23:27.552Z,0.50
2023-03-14T20:25:41.798Z,0.50
2023-03-14T20:27:55.628Z,0.40
2023-03-14T20:30:12.115Z,0.50
2023-03-14T20:32:24.876Z,0.40
2023-03-14T20:34:37.776Z,0.40
2023-03-14T20:36:53.891Z,0.50
2023-03-14T20:39:06.460Z,0.50
2023-03-14T20:41:19.090Z,0.40
2023-03-14T20:43:33.812Z,0.50
2023-03-14T20:45:48.293Z,0.40
2023-03-14T20:48:01.043Z,0.50
2023-03-14T20:50:17.291Z,0.40
2023-03-14T20:52:30.291Z,0.40
2023-03-14T20:54:43.088Z,0.40
2023-03-14T20:56:56.938Z,0.40
2023-03-14T20:59:09.649Z,0.50
2023-03-14T21:01:23.979Z,0.40
2023-03-14T21:03:36.633Z,0.60
2023-03-14T21:05:51.177Z,0.50
2023-03-14T21:08:04.035Z,0.50
2023-03-14T21:10:18.430Z,0.60
2023-03-14T21:12:31.074Z,0.50
2023-03-14T21:14:45.941Z,0.30
2023-03-14T21:17:00.041Z,0.40
2023-03-14T21:19:12.926Z,0.40
2023-03-14T21:21:25.988Z,0.30
2023-03-14T21:23:40.605Z,0.30
2023-03-14T21:25:56.849Z,0.50
2023-03-14T21:28:10.130Z,0.50
2023-03-14T21:30:23.832Z,0.40
2023-03-14T21:32:36.918Z,0.50
2023-03-14T21:34:50.736Z,0.30
2023-03-14T21:37:04.005Z,0.30
2023-03-14T21:39:17.281Z,0.50
2023-03-14T21:41:30.179Z,0.40
2023-03-14T21:43:45.063Z,0.50
2023-03-14T21:45:58.926Z,0.50
2023-03-14T21:48:12.223Z,0.40
2023-03-14T21:50:27.372Z,0.40
2023-03-14T21:52:40.244Z,0.50
2023-03-14T21:54:53.889Z,0.50
2023-03-14T21:57:07.272Z,0.40
2023-03-14T21:59:19.916Z,0.50
2023-03-14T22:01:33.552Z,0.30
2023-03-14T22:03:47.034Z,0.70
2023-03-14T22:05:59.805Z,0.40
2023-03-14T22:08:13.236Z,0.40
2023-03-14T22:10:26.367Z,0.50
2023-03-14T22:12:39.172Z,0.60
2023-03-14T22:14:52.755Z,0.30
2023-03-14T22:17:06.104Z,0.40
2023-03-14T22:19:18.991Z,0.50
2023-03-14T22:21:32.195Z,0.50
2023-03-14T22:23:45.288Z,0.40
2023-03-14T22:25:58.158Z,0.70
2023-03-14T22:28:11.386Z,0.40
2023-03-14T22:30:24.318Z,0.50
2023-03-14T22:32:37.615Z,0.60
2023-03-14T22:34:50.500Z,0.30
2023-03-14T22:37:03.944Z,0.50
2023-03-14T22:39:18.412Z,0.40
2023-03-14T22:41:31.576Z,0.80
2023-03-14T22:43:44.095Z,0.50
2023-03-14T22:46:04.676Z,0.50
2023-03-14T22:48:17.975Z,0.50
2023-03-14T22:50:30.803Z,0.40
2023-03-14T22:52:43.827Z,0.30
2023-03-14T22:54:59.990Z,0.40
2023-03-14T22:57:12.747Z,0.40
2023-03-14T22:59:25.324Z,0.40
2023-03-14T23:01:38.127Z,0.40
2023-03-14T23:03:50.618Z,0.40
2023-03-14T23:06:04.357Z,0.40
2023-03-14T23:08:17.151Z,0.80
2023-03-14T23:10:30.312Z,0.40
2023-03-14T23:12:42.900Z,0.40
2023-03-14T23:14:56.286Z,0.40
2023-03-14T23:17:13.206Z,0.30
2023-03-14T23:19:26.806Z,0.60
2023-03-14T23:21:39.739Z,0.40
2023-03-14T23:23:54.065Z,0.40
2023-03-14T23:26:08.815Z,0.50
2023-03-14T23:28:24.068Z,0.30
2023-03-14T23:30:37.202Z,0.40
2023-03-14T23:32:50.456Z,0.30
2023-03-14T23:35:05.120Z,0.30
2023-03-14T23:37:19.055Z,0.60
2023-03-14T23:39:31.798Z,0.40
2023-03-14T23:41:45.122Z,0.50
2023-03-14T23:43:59.203Z,0.50
2023-03-14T23:46:12.606Z,0.30
2023-03-14T23:48:26.928Z,0.40
2023-03-14T23:50:40.709Z,0.80
2023-03-14T23:52:54.276Z,0.50
2023-03-14T23:55:07.520Z,0.40
2023-03-14T23:57:20.167Z,0.70
2023-03-14T23:59:34.514Z,0.30
